Snyder, Texas
Current Conditions -  °F | °C
As of 10:55 AM on Wednesday 22 Oct 2014 (Local Time) from KSNK Reporting Station
Heavy Rain Heavy Rain  
Wind Chill: 58°   Ceiling: 4400
Heat Index: 58°   Visibility: 3mi
Dew Point: 57°   Wind: 5mph
Humidity: 95%   Direction: 200°SSW
Pressure: 30.17"   Gusts: NA
Location:  32.72°N, 100.91°W
Report Text: KSNK 221555Z AUTO 20004KT 3SM +RA SCT026 BKN044 OVC065 15/14 A3017 RMK AO2 P0010 T01450137
Loading
Personal Weather Stations






























Interactive Weather Map
Tropical Storm Tracking
New forecast layout! Learn more

10-Day Weather Forecast

Advertisements
Track Severe Weather on mobile